Time;durP1;ratioP1;P1;durP2;ratioP2;P2;SDS_P1;SDS_P2;PMS_P1;PMS_P2;Temp;Humidity;BMP_temperature;BMP_pressure;BME280_temperature;BME280_humidity;BME280_pressure;Samples;Min_cycle;Max_cycle;Signal;HPM_P1;HPM_P2
2021/12/26 00:01:00;;;;;;;0.40;0.30;;;7.90;99.90;;;;;;5072694;28;20417;-72
2021/12/26 00:03:28;;;;;;;0.40;0.20;;;7.80;99.90;;;;;;5090125;28;20382;-74
2021/12/26 00:05:55;;;;;;;1.30;1.00;;;7.80;99.90;;;;;;5095105;28;20407;-73
2021/12/26 00:08:21;;;;;;;0.40;0.30;;;7.80;99.90;;;;;;5110488;28;20745;-72
2021/12/26 00:10:48;;;;;;;0.40;0.20;;;7.80;99.90;;;;;;5091634;28;20384;-72
2021/12/26 00:13:16;;;;;;;0.40;0.20;;;7.60;99.90;;;;;;5110799;28;20372;-72
2021/12/26 00:15:42;;;;;;;0.40;0.20;;;7.60;99.90;;;;;;5110099;28;20377;-72
2021/12/26 00:18:10;;;;;;;0.40;0.20;;;7.60;99.90;;;;;;5075452;28;20388;-72
2021/12/26 00:20:37;;;;;;;1.10;0.70;;;7.80;99.90;;;;;;5109665;28;20418;-74
2021/12/26 00:23:03;;;;;;;0.40;0.20;;;7.80;99.90;;;;;;5091659;28;20404;-73
2021/12/26 00:25:29;;;;;;;0.40;0.30;;;7.60;99.90;;;;;;5091938;28;20392;-74
2021/12/26 00:27:55;;;;;;;0.40;0.20;;;7.40;99.90;;;;;;5109555;28;20513;-73
2021/12/26 00:30:21;;;;;;;0.40;0.30;;;7.50;99.90;;;;;;5110528;28;20723;-73
2021/12/26 00:32:48;;;;;;;0.40;0.30;;;7.40;99.90;;;;;;5091510;28;20396;-73
2021/12/26 00:35:16;;;;;;;0.83;0.63;;;7.30;99.90;;;;;;5110733;28;20383;-73
2021/12/26 00:37:43;;;;;;;0.43;0.32;;;7.30;99.90;;;;;;5110503;28;20431;-71
2021/12/26 00:40:12;;;;;;;0.40;0.30;;;7.30;99.90;;;;;;5109913;28;20391;-72
2021/12/26 00:42:38;;;;;;;0.40;0.30;;;7.50;99.90;;;;;;5112792;28;20461;-72
2021/12/26 00:45:05;;;;;;;0.40;0.40;;;7.30;99.90;;;;;;5098453;28;20385;-72
2021/12/26 00:47:32;;;;;;;1.38;1.08;;;7.20;99.90;;;;;;5093791;28;20385;-72
2021/12/26 00:50:01;;;;;;;0.40;0.20;;;7.30;99.90;;;;;;5092569;28;20390;-72
2021/12/26 00:52:27;;;;;;;0.60;0.50;;;7.20;99.90;;;;;;5092702;28;20390;-72
2021/12/26 00:54:53;;;;;;;0.40;0.30;;;7.30;99.90;;;;;;5075023;28;20397;-72
2021/12/26 00:57:19;;;;;;;0.40;0.20;;;7.20;99.90;;;;;;5092482;28;20485;-72
2021/12/26 00:59:45;;;;;;;0.40;0.20;;;7.20;99.90;;;;;;5093226;28;20531;-72
2021/12/26 01:02:11;;;;;;;0.60;0.60;;;7.20;99.90;;;;;;5093328;28;20416;-72
2021/12/26 01:04:39;;;;;;;0.40;0.30;;;7.10;99.90;;;;;;5113979;28;20463;-72
2021/12/26 01:07:12;;;;;;;0.40;0.20;;;7.00;99.90;;;;;;5113558;28;20870;-73
2021/12/26 01:09:38;;;;;;;0.40;0.30;;;6.90;99.90;;;;;;5096897;28;20490;-72
2021/12/26 01:12:12;;;;;;;0.40;0.20;;;6.80;99.90;;;;;;5095832;28;20475;-72
2021/12/26 01:14:46;;;;;;;0.40;0.20;;;6.70;99.90;;;;;;5114286;28;20381;-73
2021/12/26 01:17:15;;;;;;;0.40;0.20;;;6.60;99.90;;;;;;5095479;28;20710;-75
2021/12/26 01:19:47;;;;;;;0.40;0.20;;;6.60;99.90;;;;;;5114051;28;20417;-73
2021/12/26 01:22:15;;;;;;;0.40;0.20;;;6.60;99.90;;;;;;5113928;28;20447;-73
2021/12/26 01:24:41;;;;;;;0.80;0.80;;;6.40;99.90;;;;;;5113825;28;20393;-73
2021/12/26 01:27:07;;;;;;;0.40;0.40;;;6.50;99.90;;;;;;5114274;28;20380;-72
2021/12/26 01:29:34;;;;;;;0.40;0.30;;;6.50;99.90;;;;;;5113005;28;20903;-72
2021/12/26 01:32:00;;;;;;;0.40;0.30;;;6.30;99.90;;;;;;5095628;28;20395;-72
2021/12/26 01:34:26;;;;;;;0.40;0.20;;;6.30;99.90;;;;;;5112825;28;20451;-74
2021/12/26 01:36:51;;;;;;;0.40;0.30;;;6.30;99.90;;;;;;5113958;28;20839;-72
2021/12/26 01:39:17;;;;;;;0.40;0.30;;;6.20;99.90;;;;;;5113481;28;20404;-73
2021/12/26 01:41:44;;;;;;;0.40;0.40;;;6.10;99.90;;;;;;5094443;28;20404;-72
2021/12/26 01:44:13;;;;;;;0.40;0.30;;;6.10;99.90;;;;;;5113707;28;20770;-72
2021/12/26 01:46:40;;;;;;;0.40;0.20;;;6.10;99.90;;;;;;5112658;28;20369;-73
2021/12/26 01:49:16;;;;;;;0.40;0.22;;;6.10;99.90;;;;;;5113599;28;20376;-73
2021/12/26 01:51:45;;;;;;;1.00;1.00;;;6.10;99.90;;;;;;5104163;28;20418;-73
2021/12/26 01:54:16;;;;;;;0.40;0.20;;;6.10;99.90;;;;;;5103118;28;20435;-73
2021/12/26 01:56:42;;;;;;;0.40;0.20;;;6.10;99.90;;;;;;5094174;28;20741;-74
2021/12/26 01:59:10;;;;;;;0.70;0.70;;;6.00;99.90;;;;;;5113174;28;20925;-73
2021/12/26 02:01:36;;;;;;;1.70;0.80;;;6.00;99.90;;;;;;5103938;28;20441;-72
2021/12/26 02:04:03;;;;;;;0.40;0.20;;;5.80;99.90;;;;;;5112318;28;20411;-73
2021/12/26 02:06:29;;;;;;;0.40;0.40;;;5.90;99.90;;;;;;5112969;28;20763;-73
2021/12/26 02:08:55;;;;;;;0.40;0.20;;;5.80;99.90;;;;;;5112397;28;20368;-73
2021/12/26 02:11:21;;;;;;;0.40;0.20;;;5.70;99.90;;;;;;5112631;28;20441;-73
2021/12/26 02:13:47;;;;;;;0.40;0.30;;;5.70;99.90;;;;;;5113195;28;20372;-72
2021/12/26 02:16:13;;;;;;;0.40;0.20;;;5.90;99.90;;;;;;5111907;28;20360;-73
2021/12/26 02:18:40;;;;;;;0.60;0.60;;;5.80;99.90;;;;;;5113357;28;20850;-73
2021/12/26 02:21:22;;;;;;;0.40;0.20;;;5.80;99.90;;;;;;5111809;28;20369;-73
2021/12/26 02:24:01;;;;;;;0.40;0.20;;;5.70;99.90;;;;;;5112849;28;20388;-73
2021/12/26 02:29:11;;;;;;;0.40;0.20;;;5.70;99.90;;;;;;5112100;28;20418;-73
2021/12/26 02:31:37;;;;;;;1.10;1.00;;;5.80;99.90;;;;;;5093747;28;20388;-73
2021/12/26 02:34:03;;;;;;;0.40;0.20;;;5.80;99.90;;;;;;5112847;28;20435;-73
2021/12/26 02:36:29;;;;;;;0.40;0.20;;;5.60;99.90;;;;;;5111887;28;20375;-73
2021/12/26 02:38:55;;;;;;;0.40;0.20;;;5.50;99.90;;;;;;5112528;28;20364;-73
2021/12/26 02:41:21;;;;;;;0.40;0.20;;;5.60;99.90;;;;;;5111630;28;20456;-73
2021/12/26 02:43:46;;;;;;;0.40;0.20;;;5.70;99.90;;;;;;5094203;28;20712;-73
2021/12/26 02:46:12;;;;;;;0.40;0.20;;;5.70;99.90;;;;;;5112367;28;20372;-73
2021/12/26 02:48:38;;;;;;;0.40;0.40;;;5.80;99.90;;;;;;5111478;28;20377;-73
2021/12/26 02:51:05;;;;;;;0.40;0.20;;;5.70;99.90;;;;;;5093976;28;20376;-73
2021/12/26 02:53:31;;;;;;;0.70;0.50;;;5.70;99.90;;;;;;5111297;28;20392;-73
2021/12/26 02:55:59;;;;;;;0.60;0.60;;;5.70;99.90;;;;;;5111887;28;20404;-73
2021/12/26 02:58:25;;;;;;;0.60;0.60;;;5.60;99.90;;;;;;5111232;28;20859;-75
2021/12/26 03:00:59;;;;;;;0.40;0.20;;;5.70;99.90;;;;;;5111454;28;20377;-73
2021/12/26 03:03:24;;;;;;;0.40;0.20;;;5.60;99.90;;;;;;5111967;28;20411;-72
2021/12/26 03:05:57;;;;;;;1.20;0.80;;;5.60;99.90;;;;;;5111018;28;21015;-73
2021/12/26 03:08:23;;;;;;;0.40;0.20;;;5.40;99.90;;;;;;5111910;28;20484;-73
2021/12/26 03:10:51;;;;;;;0.40;0.25;;;5.50;99.90;;;;;;5092610;28;20431;-73
2021/12/26 03:13:17;;;;;;;0.40;0.30;;;5.50;99.90;;;;;;5112188;28;20446;-73
2021/12/26 03:15:43;;;;;;;0.40;0.40;;;5.60;99.90;;;;;;5092690;28;20389;-73
2021/12/26 03:18:09;;;;;;;0.40;0.30;;;5.60;99.90;;;;;;5111808;28;20384;-73
2021/12/26 03:20:38;;;;;;;0.40;0.20;;;5.60;99.90;;;;;;5093538;28;20385;-72
2021/12/26 03:23:06;;;;;;;0.57;0.43;;;5.60;99.90;;;;;;5110799;28;20412;-73
2021/12/26 03:25:32;;;;;;;0.40;0.20;;;5.40;99.90;;;;;;5111750;28;20835;-73
2021/12/26 03:27:59;;;;;;;0.40;0.20;;;5.50;99.90;;;;;;5110369;28;20501;-73
2021/12/26 03:30:28;;;;;;;0.50;0.50;;;5.60;99.90;;;;;;5111619;28;20376;-73
2021/12/26 03:32:55;;;;;;;0.40;0.20;;;5.50;99.90;;;;;;5089116;28;20732;-74
2021/12/26 03:35:23;;;;;;;0.40;0.40;;;5.40;99.90;;;;;;5090697;28;20379;-73
2021/12/26 03:37:49;;;;;;;0.70;0.70;;;5.40;99.90;;;;;;5056233;28;20386;-73
2021/12/26 03:40:15;;;;;;;0.60;0.60;;;5.40;99.90;;;;;;5072049;28;20388;-73
2021/12/26 03:42:41;;;;;;;0.40;0.30;;;5.70;99.90;;;;;;5072546;28;20433;-73
2021/12/26 03:45:08;;;;;;;1.10;0.60;;;5.50;99.90;;;;;;5071981;28;20757;-73
2021/12/26 03:47:37;;;;;;;0.90;0.90;;;5.50;99.90;;;;;;5090733;28;20880;-73
2021/12/26 03:50:06;;;;;;;0.40;0.30;;;5.40;99.90;;;;;;5072844;28;20378;-72
2021/12/26 03:52:31;;;;;;;0.40;0.20;;;5.40;99.90;;;;;;5082019;28;20481;-73
2021/12/26 03:54:57;;;;;;;0.40;0.20;;;5.50;99.90;;;;;;5110657;28;20515;-73
2021/12/26 03:57:23;;;;;;;0.40;0.20;;;5.60;99.90;;;;;;5101800;28;20459;-73
2021/12/26 03:59:49;;;;;;;0.50;0.50;;;5.50;99.90;;;;;;5072520;28;20415;-73
2021/12/26 04:02:15;;;;;;;0.40;0.20;;;5.30;99.90;;;;;;5100772;28;20461;-73
2021/12/26 04:04:42;;;;;;;0.40;0.20;;;5.30;99.90;;;;;;5110152;28;20385;-73
2021/12/26 04:07:09;;;;;;;0.40;0.30;;;5.30;99.90;;;;;;5110546;28;20858;-73
2021/12/26 04:09:35;;;;;;;0.40;0.30;;;5.40;99.90;;;;;;5110165;28;20379;-73
2021/12/26 04:12:01;;;;;;;0.40;0.20;;;5.40;99.90;;;;;;5110822;28;20768;-73
2021/12/26 04:14:27;;;;;;;0.40;0.20;;;5.30;99.90;;;;;;5110784;28;20372;-75
2021/12/26 04:16:53;;;;;;;0.40;0.20;;;5.20;99.90;;;;;;5110154;28;20860;-73
2021/12/26 04:19:19;;;;;;;0.40;0.20;;;5.30;99.90;;;;;;5110895;28;20876;-73
2021/12/26 04:21:45;;;;;;;0.50;0.50;;;5.20;99.90;;;;;;5109889;28;20407;-73
2021/12/26 04:24:11;;;;;;;0.40;0.20;;;5.30;99.90;;;;;;5110661;28;20392;-73
2021/12/26 04:26:39;;;;;;;0.70;0.70;;;5.40;99.90;;;;;;5110412;28;20457;-75
2021/12/26 04:29:06;;;;;;;0.40;0.20;;;5.40;99.90;;;;;;5110549;28;20419;-73
2021/12/26 04:31:31;;;;;;;0.40;0.20;;;5.50;99.90;;;;;;5110717;28;20384;-73
2021/12/26 04:33:57;;;;;;;0.40;0.20;;;5.40;99.90;;;;;;5109671;28;20399;-73
2021/12/26 04:36:23;;;;;;;0.40;0.20;;;5.60;99.90;;;;;;5111196;28;20383;-73
2021/12/26 04:38:48;;;;;;;0.40;0.30;;;5.40;99.90;;;;;;5110395;28;20437;-74
2021/12/26 04:41:16;;;;;;;0.40;0.20;;;5.40;99.90;;;;;;5110345;28;20428;-72
2021/12/26 04:43:42;;;;;;;0.40;0.20;;;5.50;99.90;;;;;;5111020;28;20425;-72
2021/12/26 04:46:08;;;;;;;0.40;0.20;;;5.40;99.90;;;;;;5092040;28;20459;-73
2021/12/26 04:48:40;;;;;;;0.60;0.60;;;5.40;99.90;;;;;;5092645;28;20838;-72
2021/12/26 04:51:07;;;;;;;0.40;0.30;;;5.20;99.90;;;;;;5109942;28;20407;-73
2021/12/26 04:53:34;;;;;;;0.90;0.90;;;5.20;99.90;;;;;;5092979;28;20403;-73
2021/12/26 04:56:00;;;;;;;2.00;0.80;;;5.10;99.90;;;;;;5110788;28;20377;-74
2021/12/26 04:58:26;;;;;;;1.00;0.60;;;5.20;99.90;;;;;;5110552;28;20380;-73
2021/12/26 05:00:52;;;;;;;0.60;0.60;;;5.10;99.90;;;;;;5110877;28;20369;-73
2021/12/26 05:03:18;;;;;;;0.40;0.20;;;5.20;99.90;;;;;;5109668;28;20473;-73
2021/12/26 05:05:44;;;;;;;0.40;0.30;;;5.30;99.90;;;;;;5092614;28;20384;-73
2021/12/26 05:08:12;;;;;;;0.40;0.20;;;5.20;99.90;;;;;;5110626;28;20389;-75
2021/12/26 05:10:38;;;;;;;0.40;0.20;;;5.20;99.90;;;;;;5092472;28;20416;-73
2021/12/26 05:13:04;;;;;;;0.40;0.20;;;5.20;99.90;;;;;;5111002;28;20385;-73
2021/12/26 05:15:31;;;;;;;0.40;0.20;;;5.20;99.90;;;;;;5110129;28;20387;-73
2021/12/26 05:17:57;;;;;;;0.40;0.20;;;5.30;99.90;;;;;;5110277;28;20399;-72
2021/12/26 05:20:25;;;;;;;0.40;0.30;;;5.30;99.90;;;;;;5092071;28;20467;-75
2021/12/26 05:22:53;;;;;;;0.40;0.20;;;5.40;99.90;;;;;;5110517;28;20404;-73
2021/12/26 05:25:19;;;;;;;0.40;0.20;;;5.30;99.90;;;;;;5110212;28;20388;-73
2021/12/26 05:27:45;;;;;;;0.40;0.30;;;5.20;99.90;;;;;;5109759;28;20372;-73
2021/12/26 05:30:14;;;;;;;0.40;0.30;;;5.20;99.90;;;;;;5114117;28;20396;-73
2021/12/26 05:32:41;;;;;;;0.40;0.30;;;5.20;99.90;;;;;;5111944;28;20434;-73
2021/12/26 05:35:09;;;;;;;0.40;0.20;;;5.30;99.90;;;;;;5075917;28;20883;-73
2021/12/26 05:37:35;;;;;;;0.40;0.30;;;5.30;99.90;;;;;;5093496;28;20392;-75
2021/12/26 05:40:03;;;;;;;0.40;0.30;;;5.20;99.90;;;;;;5093146;28;20383;-73
2021/12/26 05:42:29;;;;;;;0.70;0.70;;;5.10;99.90;;;;;;5093762;28;20438;-73
2021/12/26 05:44:55;;;;;;;0.40;0.30;;;5.10;99.90;;;;;;5093309;28;20436;-73
2021/12/26 05:47:21;;;;;;;0.40;0.30;;;5.10;99.90;;;;;;5093794;28;20382;-73
2021/12/26 05:49:47;;;;;;;0.40;0.30;;;5.20;99.90;;;;;;5092725;28;20370;-73
2021/12/26 05:52:13;;;;;;;0.40;0.20;;;5.20;99.90;;;;;;5094367;28;20386;-74
2021/12/26 05:54:39;;;;;;;0.40;0.20;;;5.20;99.90;;;;;;5113346;28;20385;-73
2021/12/26 05:57:05;;;;;;;0.40;0.20;;;5.20;99.90;;;;;;5112281;28;20532;-73
2021/12/26 05:59:31;;;;;;;0.40;0.20;;;5.20;99.90;;;;;;5113850;28;20380;-73
2021/12/26 06:01:57;;;;;;;0.40;0.20;;;5.10;99.90;;;;;;5113167;28;20396;-74
2021/12/26 06:04:24;;;;;;;0.40;0.32;;;5.10;99.90;;;;;;5113419;28;20428;-72
2021/12/26 06:06:50;;;;;;;0.40;0.30;;;5.00;99.90;;;;;;5113805;28;20380;-72
2021/12/26 06:09:16;;;;;;;0.40;0.30;;;5.10;99.90;;;;;;5112864;28;20386;-71
2021/12/26 06:11:41;;;;;;;0.40;0.20;;;5.10;99.90;;;;;;5113792;28;20864;-71
2021/12/26 06:14:07;;;;;;;0.50;0.50;;;5.20;99.90;;;;;;5112694;28;20369;-72
2021/12/26 06:16:33;;;;;;;0.40;0.20;;;4.90;99.90;;;;;;5113858;28;20376;-72
2021/12/26 06:18:59;;;;;;;0.40;0.20;;;4.90;99.90;;;;;;5113108;28;20377;-72
2021/12/26 06:21:24;;;;;;;0.40;0.20;;;5.00;99.90;;;;;;5112586;28;20415;-72
2021/12/26 06:23:50;;;;;;;0.60;0.60;;;5.00;99.90;;;;;;5113411;28;20468;-72
2021/12/26 06:26:24;;;;;;;0.40;0.20;;;4.90;99.90;;;;;;5094320;28;20427;-73
2021/12/26 06:28:51;;;;;;;0.40;0.30;;;4.90;99.90;;;;;;5113312;28;20433;-73
2021/12/26 06:31:17;;;;;;;0.55;0.45;;;4.90;99.90;;;;;;5113057;28;20454;-74
2021/12/26 06:33:43;;;;;;;0.40;0.28;;;4.90;99.90;;;;;;5102788;28;20401;-72
2021/12/26 06:36:10;;;;;;;0.40;0.20;;;5.00;99.90;;;;;;5092809;28;20405;-72
2021/12/26 06:38:40;;;;;;;0.40;0.20;;;5.00;99.90;;;;;;5073765;28;20382;-72
2021/12/26 06:41:06;;;;;;;0.40;0.20;;;5.00;99.90;;;;;;5071043;28;20393;-72
2021/12/26 06:43:33;;;;;;;0.40;0.20;;;5.00;99.90;;;;;;5091873;28;20465;-72
2021/12/26 06:45:59;;;;;;;0.40;0.28;;;5.00;99.90;;;;;;5092785;28;20382;-72
2021/12/26 06:48:25;;;;;;;0.40;0.20;;;5.10;99.90;;;;;;5092338;28;20909;-72
2021/12/26 06:50:52;;;;;;;0.40;0.20;;;5.20;99.90;;;;;;5091708;28;20555;-72
2021/12/26 06:53:18;;;;;;;0.40;0.23;;;5.10;99.90;;;;;;5092303;28;20421;-72
2021/12/26 06:55:46;;;;;;;0.70;0.70;;;5.20;99.90;;;;;;5091966;28;20389;-72
2021/12/26 06:58:12;;;;;;;0.40;0.20;;;5.20;99.90;;;;;;5092303;28;20374;-72
2021/12/26 07:00:39;;;;;;;0.60;0.60;;;5.10;99.90;;;;;;5092002;28;20370;-73
2021/12/26 07:03:05;;;;;;;0.40;0.20;;;5.20;99.90;;;;;;5091697;28;20409;-72
2021/12/26 07:05:31;;;;;;;0.40;0.20;;;5.20;99.90;;;;;;5092508;28;20378;-74
2021/12/26 07:07:57;;;;;;;0.47;0.40;;;5.20;99.90;;;;;;5090961;28;20455;-72
2021/12/26 07:10:23;;;;;;;0.40;0.20;;;5.20;99.90;;;;;;5091942;28;20435;-72
2021/12/26 07:12:48;;;;;;;0.40;0.30;;;5.20;99.90;;;;;;5092002;28;20378;-75
2021/12/26 07:15:14;;;;;;;0.40;0.30;;;5.30;99.90;;;;;;5090982;28;20390;-72
2021/12/26 07:17:41;;;;;;;0.40;0.30;;;5.30;99.90;;;;;;5092201;28;20427;-72
2021/12/26 07:20:09;;;;;;;0.40;0.20;;;5.10;99.90;;;;;;5091219;28;20912;-71
2021/12/26 07:22:35;;;;;;;0.55;0.55;;;5.30;99.90;;;;;;5091240;28;20879;-71
2021/12/26 07:25:01;;;;;;;0.60;0.60;;;5.30;99.90;;;;;;5091204;28;20392;-73
2021/12/26 07:27:27;;;;;;;0.40;0.20;;;5.30;99.90;;;;;;5092106;28;20827;-71
2021/12/26 07:29:52;;;;;;;0.40;0.25;;;5.30;99.90;;;;;;5091856;28;20409;-73
2021/12/26 07:32:18;;;;;;;0.40;0.20;;;5.30;99.90;;;;;;5090936;28;20373;-74
2021/12/26 07:34:44;;;;;;;0.40;0.20;;;5.30;99.90;;;;;;5073689;28;20435;-74
2021/12/26 07:37:09;;;;;;;0.50;0.40;;;5.30;99.90;;;;;;5091107;28;20465;-76
2021/12/26 07:39:36;;;;;;;0.40;0.20;;;5.30;99.90;;;;;;5091404;28;20378;-73
2021/12/26 07:42:02;;;;;;;0.40;0.20;;;5.30;99.90;;;;;;5091486;28;20402;-74
2021/12/26 07:44:28;;;;;;;0.40;0.20;;;5.40;99.90;;;;;;5090761;28;20378;-74
2021/12/26 07:46:54;;;;;;;0.40;0.20;;;5.40;99.90;;;;;;5091234;28;20917;-74
2021/12/26 07:49:21;;;;;;;0.40;0.20;;;5.40;99.90;;;;;;5090532;28;20378;-75
2021/12/26 07:51:48;;;;;;;0.40;0.20;;;5.50;99.90;;;;;;5093617;28;20392;-73
2021/12/26 07:54:15;;;;;;;0.40;0.20;;;5.50;99.90;;;;;;5109149;28;20392;-74
2021/12/26 07:56:41;;;;;;;0.40;0.27;;;5.50;99.90;;;;;;5110788;28;20376;-73
2021/12/26 07:59:07;;;;;;;0.40;0.20;;;5.50;99.90;;;;;;5111596;28;20373;-74
2021/12/26 08:01:33;;;;;;;0.40;0.20;;;5.40;99.90;;;;;;5110811;28;20435;-74
2021/12/26 08:04:01;;;;;;;0.40;0.30;;;5.60;99.90;;;;;;5111451;28;20416;-74
2021/12/26 08:06:31;;;;;;;0.40;0.30;;;5.60;99.90;;;;;;5111091;28;20373;-76
2021/12/26 08:08:56;;;;;;;0.70;0.60;;;5.50;99.90;;;;;;5111405;28;20380;-74
2021/12/26 08:11:22;;;;;;;0.40;0.20;;;5.60;99.90;;;;;;5111450;28;20382;-73
2021/12/26 08:13:48;;;;;;;0.40;0.20;;;5.70;99.90;;;;;;5110554;28;20777;-74
2021/12/26 08:16:14;;;;;;;0.40;0.20;;;5.70;99.90;;;;;;5111272;28;20455;-74
2021/12/26 08:18:41;;;;;;;0.40;0.20;;;5.70;99.90;;;;;;5108377;28;20372;-74
2021/12/26 08:21:07;;;;;;;0.40;0.30;;;5.70;99.90;;;;;;5090607;28;20440;-74
2021/12/26 08:23:33;;;;;;;0.40;0.20;;;5.70;99.90;;;;;;5072577;28;20382;-74
2021/12/26 08:26:00;;;;;;;0.40;0.20;;;5.80;99.90;;;;;;5090274;28;20390;-74
2021/12/26 08:28:25;;;;;;;0.90;0.90;;;5.70;99.90;;;;;;5090660;28;20485;-74
2021/12/26 08:30:51;;;;;;;0.40;0.20;;;5.80;99.90;;;;;;5090038;28;20914;-74
2021/12/26 08:33:17;;;;;;;1.00;0.70;;;5.70;99.90;;;;;;5073237;28;20390;-74
2021/12/26 08:35:46;;;;;;;0.40;0.30;;;5.80;99.90;;;;;;5090773;28;20417;-74
2021/12/26 08:38:14;;;;;;;0.40;0.20;;;5.70;99.90;;;;;;5090610;28;20551;-74
2021/12/26 08:40:39;;;;;;;0.40;0.20;;;5.80;99.90;;;;;;5091124;28;20439;-73
2021/12/26 08:43:07;;;;;;;0.50;0.50;;;5.80;99.90;;;;;;5090060;28;20409;-73
2021/12/26 08:45:32;;;;;;;0.80;0.80;;;5.70;99.90;;;;;;5091274;28;20670;-73
2021/12/26 08:47:59;;;;;;;0.47;0.47;;;5.70;99.90;;;;;;5089994;28;20456;-73
2021/12/26 08:50:27;;;;;;;0.40;0.20;;;5.70;99.90;;;;;;5090858;28;20389;-73
2021/12/26 08:52:54;;;;;;;0.40;0.20;;;5.70;99.90;;;;;;5090661;28;20382;-73
2021/12/26 08:55:21;;;;;;;0.40;0.20;;;5.60;99.90;;;;;;5072626;28;20398;-73
2021/12/26 08:57:47;;;;;;;0.40;0.20;;;5.70;99.90;;;;;;5091079;28;20382;-73
2021/12/26 09:00:15;;;;;;;0.40;0.20;;;5.50;99.90;;;;;;5090899;28;20378;-74
2021/12/26 09:02:40;;;;;;;0.40;0.20;;;5.60;99.90;;;;;;5093452;28;20845;-74
2021/12/26 09:05:07;;;;;;;0.40;0.20;;;5.70;99.90;;;;;;5114557;28;20416;-73
2021/12/26 09:07:32;;;;;;;0.60;0.60;;;6.00;99.90;;;;;;5115661;28;20372;-73
2021/12/26 09:09:59;;;;;;;0.50;0.50;;;6.00;99.90;;;;;;5114914;28;20387;-74
2021/12/26 09:12:24;;;;;;;0.40;0.20;;;6.10;99.90;;;;;;5114537;28;20505;-73
2021/12/26 09:14:51;;;;;;;0.40;0.30;;;6.20;99.90;;;;;;5115003;28;20407;-74
2021/12/26 09:17:16;;;;;;;0.40;0.30;;;6.00;99.90;;;;;;5114517;28;20376;-72
2021/12/26 09:19:42;;;;;;;1.20;1.20;;;6.10;99.90;;;;;;5115184;28;20388;-72
2021/12/26 09:22:10;;;;;;;0.40;0.20;;;6.30;99.90;;;;;;5114897;28;20404;-72
2021/12/26 09:24:36;;;;;;;1.20;1.10;;;6.50;99.90;;;;;;5096706;28;20388;-72
2021/12/26 09:27:03;;;;;;;0.70;0.70;;;6.50;99.90;;;;;;5114525;28;20389;-72
2021/12/26 09:29:29;;;;;;;0.40;0.20;;;6.50;99.90;;;;;;5114143;28;20408;-73
2021/12/26 09:31:56;;;;;;;0.40;0.30;;;6.40;99.90;;;;;;5114518;28;20464;-73
2021/12/26 09:34:23;;;;;;;0.40;0.30;;;6.30;99.90;;;;;;5113546;28;20738;-73
2021/12/26 09:36:49;;;;;;;0.40;0.20;;;6.50;99.90;;;;;;5114173;28;20372;-73
2021/12/26 09:39:15;;;;;;;0.40;0.20;;;6.50;99.90;;;;;;5114638;28;20369;-73
2021/12/26 09:41:41;;;;;;;0.40;0.30;;;6.40;99.90;;;;;;5113898;28;20438;-73
2021/12/26 09:44:08;;;;;;;0.40;0.40;;;6.30;99.90;;;;;;5114598;28;20704;-73
2021/12/26 09:46:35;;;;;;;0.40;0.30;;;6.60;99.90;;;;;;5113817;28;20384;-73
2021/12/26 09:49:00;;;;;;;0.43;0.28;;;6.70;99.90;;;;;;5096210;28;20400;-73
2021/12/26 09:51:27;;;;;;;0.80;0.70;;;6.80;99.90;;;;;;5114200;27;20877;-76
2021/12/26 09:53:53;;;;;;;0.70;0.70;;;6.80;99.90;;;;;;5102630;28;20445;-73
2021/12/26 09:56:19;;;;;;;1.20;1.00;;;6.90;99.90;;;;;;5112810;28;20384;-73
2021/12/26 09:58:56;;;;;;;0.40;0.30;;;6.80;99.90;;;;;;5083976;28;20481;-73
2021/12/26 10:01:32;;;;;;;0.57;0.57;;;6.60;99.90;;;;;;5099985;28;20399;-73
2021/12/26 10:04:24;;;;;;;0.60;0.60;;;6.60;99.90;;;;;;5114210;28;20373;-74
2021/12/26 10:07:00;;;;;;;0.40;0.30;;;6.70;99.90;;;;;;5081932;28;20481;-74
2021/12/26 10:09:27;;;;;;;0.40;0.30;;;6.70;99.90;;;;;;5102990;28;20420;-73
2021/12/26 10:12:00;;;;;;;0.52;0.43;;;6.80;99.90;;;;;;5101160;28;20731;-73
2021/12/26 10:14:33;;;;;;;0.40;0.30;;;6.40;99.90;;;;;;5110940;28;20372;-73
2021/12/26 10:17:03;;;;;;;0.40;0.30;;;6.40;99.90;;;;;;5111849;28;20376;-74
2021/12/26 10:19:33;;;;;;;0.40;0.20;;;6.60;99.90;;;;;;5113096;28;20380;-73
2021/12/26 10:22:03;;;;;;;0.40;0.30;;;6.40;99.90;;;;;;5091112;28;20408;-73
2021/12/26 10:24:31;;;;;;;0.40;0.30;;;6.60;99.90;;;;;;5085146;28;20407;-72
2021/12/26 10:27:09;;;;;;;0.40;0.30;;;6.60;99.90;;;;;;5098766;28;20372;-72
2021/12/26 10:29:43;;;;;;;0.40;0.20;;;6.50;99.90;;;;;;5082590;28;20439;-73
2021/12/26 10:32:18;;;;;;;0.40;0.30;;;6.40;99.90;;;;;;5100304;28;20425;-74
2021/12/26 10:34:51;;;;;;;0.40;0.40;;;6.50;99.90;;;;;;5104192;28;20485;-73
2021/12/26 10:37:24;;;;;;;0.40;0.20;;;6.60;99.90;;;;;;5086961;28;20386;-73
2021/12/26 10:39:53;;;;;;;0.40;0.20;;;6.70;99.90;;;;;;5081214;28;20391;-72
2021/12/26 10:42:24;;;;;;;0.40;0.20;;;6.50;99.90;;;;;;5100664;28;20400;-71
2021/12/26 10:45:03;;;;;;;0.40;0.20;;;6.70;99.90;;;;;;5103407;28;20871;-73
2021/12/26 10:47:31;;;;;;;0.40;0.20;;;6.90;99.90;;;;;;5085703;28;20380;-72
2021/12/26 10:50:06;;;;;;;0.40;0.30;;;7.20;99.90;;;;;;5100841;28;20378;-75
2021/12/26 10:52:52;;;;;;;0.40;0.20;;;7.20;99.90;;;;;;5104513;28;20889;-72
2021/12/26 10:55:29;;;;;;;0.40;0.20;;;7.30;99.90;;;;;;5102654;28;20487;-72
2021/12/26 10:57:55;;;;;;;0.50;0.50;;;7.30;99.90;;;;;;5105904;28;20861;-72
2021/12/26 11:00:28;;;;;;;0.60;0.60;;;7.30;99.90;;;;;;5100955;28;20377;-72
2021/12/26 11:03:01;;;;;;;0.63;0.63;;;7.40;99.90;;;;;;5085513;28;20422;-74
2021/12/26 11:05:35;;;;;;;0.40;0.20;;;7.10;99.90;;;;;;5081701;28;20393;-73
2021/12/26 11:08:08;;;;;;;0.40;0.20;;;7.10;99.90;;;;;;5097909;28;20451;-72
2021/12/26 11:10:37;;;;;;;1.10;0.90;;;7.30;99.90;;;;;;5097748;28;20398;-74
2021/12/26 11:13:06;;;;;;;0.70;0.50;;;7.10;99.90;;;;;;5100780;28;20392;-71
2021/12/26 11:15:37;;;;;;;0.40;0.30;;;7.00;99.90;;;;;;5100460;28;20378;-74
2021/12/26 11:18:12;;;;;;;0.40;0.30;;;6.90;99.90;;;;;;5105196;28;20381;-74
2021/12/26 11:20:41;;;;;;;0.40;0.30;;;6.60;99.90;;;;;;5105530;28;20949;-75
2021/12/26 11:23:35;;;;;;;0.40;0.40;;;6.70;99.90;;;;;;5101866;28;20402;-74
2021/12/26 11:26:06;;;;;;;0.40;0.20;;;6.90;99.90;;;;;;5101826;28;20477;-72
2021/12/26 11:28:40;;;;;;;0.40;0.20;;;6.80;99.90;;;;;;5111444;28;20417;-71
2021/12/26 11:31:12;;;;;;;0.40;0.30;;;7.10;99.90;;;;;;5120116;27;20395;-74
2021/12/26 11:33:39;;;;;;;0.40;0.20;;;7.30;99.90;;;;;;5110528;27;20396;-73
2021/12/26 11:36:11;;;;;;;0.40;0.30;;;7.40;99.90;;;;;;5100581;27;20407;-74
2021/12/26 11:38:38;;;;;;;0.40;0.20;;;7.50;99.90;;;;;;5084453;27;20394;-74
2021/12/26 11:41:26;;;;;;;0.40;0.30;;;7.40;99.90;;;;;;5100670;28;20432;-74
2021/12/26 11:43:55;;;;;;;0.40;0.30;;;7.40;99.90;;;;;;5100965;27;20400;-73
2021/12/26 11:47:00;;;;;;;1.70;0.85;;;7.50;99.90;;;;;;5104911;28;20737;-74
2021/12/26 11:50:01;;;;;;;0.40;0.20;;;7.30;99.90;;;;;;5107901;27;20784;-76
2021/12/26 11:52:54;;;;;;;0.40;0.30;;;7.50;99.90;;;;;;5102051;28;20434;-73
2021/12/26 11:55:47;;;;;;;0.40;0.20;;;7.50;99.90;;;;;;5117851;27;20388;-73
2021/12/26 11:58:45;;;;;;;0.40;0.30;;;7.50;99.90;;;;;;5103539;27;20368;-73
2021/12/26 12:01:19;;;;;;;0.40;0.30;;;7.30;99.90;;;;;;5105555;27;20478;-73
2021/12/26 12:03:44;;;;;;;0.40;0.30;;;7.30;99.90;;;;;;5105264;27;20475;-73
2021/12/26 12:06:24;;;;;;;0.40;0.30;;;7.40;99.90;;;;;;5102992;27;20457;-73
2021/12/26 12:08:50;;;;;;;0.40;0.20;;;7.40;99.90;;;;;;5101483;27;20378;-73
2021/12/26 12:11:15;;;;;;;1.00;0.90;;;7.40;99.90;;;;;;5102538;27;20373;-74
2021/12/26 12:13:43;;;;;;;0.40;0.20;;;7.50;99.90;;;;;;5083180;28;20836;-75
2021/12/26 12:16:27;;;;;;;0.50;0.50;;;7.60;99.90;;;;;;5098971;28;20772;-74
2021/12/26 12:18:57;;;;;;;0.40;0.30;;;7.70;99.90;;;;;;5101345;28;20374;-73
2021/12/26 12:21:40;;;;;;;0.40;0.28;;;7.90;99.90;;;;;;5103922;27;20380;-73
2021/12/26 12:24:26;;;;;;;0.40;0.20;;;7.90;99.90;;;;;;5085939;28;20404;-73
2021/12/26 12:26:57;;;;;;;0.47;0.37;;;8.10;99.90;;;;;;5104713;28;20374;-73
2021/12/26 12:29:28;;;;;;;2.30;0.70;;;7.80;99.90;;;;;;5109331;28;20406;-73
2021/12/26 12:32:06;;;;;;;0.40;0.30;;;7.80;99.90;;;;;;5105479;27;20852;-73
2021/12/26 12:35:01;;;;;;;0.80;0.80;;;7.70;99.90;;;;;;5104631;28;20405;-73
2021/12/26 12:37:36;;;;;;;0.90;0.80;;;7.80;99.90;;;;;;5098820;28;20388;-74
2021/12/26 12:40:42;;;;;;;0.40;0.30;;;7.80;99.90;;;;;;5106408;27;20407;-73
2021/12/26 12:43:12;;;;;;;0.80;0.60;;;7.70;99.90;;;;;;5128121;27;20940;-73
2021/12/26 12:46:06;;;;;;;0.40;0.30;;;7.90;99.90;;;;;;5135626;27;20390;-73
2021/12/26 12:48:44;;;;;;;0.40;0.30;;;8.00;99.90;;;;;;5116022;27;20697;-72
2021/12/26 12:51:16;;;;;;;1.10;0.60;;;7.90;99.90;;;;;;5107476;27;20370;-73
2021/12/26 12:53:56;;;;;;;0.70;0.70;;;7.70;99.90;;;;;;5138219;27;20433;-73
2021/12/26 12:56:33;;;;;;;0.50;0.50;;;7.60;99.90;;;;;;5138629;27;20911;-73
2021/12/26 12:59:19;;;;;;;2.10;1.30;;;7.50;99.90;;;;;;5104314;27;20378;-74
2021/12/26 13:02:03;;;;;;;2.70;1.00;;;7.60;99.90;;;;;;5120009;27;20406;-73
2021/12/26 13:04:43;;;;;;;0.50;0.50;;;7.50;99.90;;;;;;5120042;27;20386;-73
2021/12/26 13:07:09;;;;;;;0.40;0.35;;;7.50;99.90;;;;;;5106753;27;20381;-74
2021/12/26 13:09:36;;;;;;;0.60;0.60;;;7.60;99.90;;;;;;5139280;27;20383;-72